createdAt,value
2017-10-23T00:02:22.365Z,58.99
2017-10-23T00:04:48.695Z,59.07
2017-10-23T00:07:15.018Z,59.39
2017-10-23T00:09:41.351Z,58.86
2017-10-23T00:12:07.735Z,58.39
2017-10-23T00:14:34.032Z,58.26
2017-10-23T00:17:00.337Z,57.97
2017-10-23T00:19:26.683Z,57.93
2017-10-23T00:21:53.009Z,57.97
2017-10-23T00:24:19.331Z,58.36
2017-10-23T00:26:45.680Z,58.61
2017-10-23T00:29:12.015Z,58.52
2017-10-23T00:31:38.352Z,58.26
2017-10-23T00:34:04.663Z,58.19
2017-10-23T00:36:31.007Z,58.31
2017-10-23T00:38:57.326Z,58.80
2017-10-23T00:41:23.664Z,58.78
2017-10-23T00:43:49.987Z,58.60
2017-10-23T00:46:16.392Z,58.52
2017-10-23T00:48:42.658Z,58.92
2017-10-23T00:51:08.981Z,58.72
2017-10-23T00:53:35.331Z,58.15
2017-10-23T00:56:01.661Z,58.16
2017-10-23T00:58:27.976Z,57.43
2017-10-23T01:00:54.327Z,57.54
2017-10-23T01:03:20.645Z,57.46
2017-10-23T01:05:47.402Z,57.36
2017-10-23T01:08:13.738Z,57.33
2017-10-23T01:10:40.050Z,56.68
2017-10-23T01:13:06.419Z,56.75
2017-10-23T01:15:32.716Z,55.05
2017-10-23T01:17:59.053Z,56.46
2017-10-23T01:20:25.405Z,56.04
2017-10-23T01:22:51.734Z,55.47
2017-10-23T01:25:18.075Z,55.03
2017-10-23T01:27:44.388Z,54.29
2017-10-23T01:30:10.724Z,53.90
2017-10-23T01:32:37.053Z,54.12
2017-10-23T01:35:03.396Z,54.37
2017-10-23T01:37:29.774Z,55.18
2017-10-23T01:39:56.147Z,54.86
2017-10-23T01:42:22.467Z,54.68
2017-10-23T01:44:48.811Z,54.25
2017-10-23T01:47:15.198Z,53.76
2017-10-23T01:49:41.458Z,54.00
2017-10-23T01:52:07.798Z,53.37
2017-10-23T01:54:34.143Z,53.21
2017-10-23T01:57:00.532Z,52.98
2017-10-23T01:59:26.800Z,53.41
2017-10-23T02:01:53.136Z,53.39
2017-10-23T02:04:19.458Z,53.82
2017-10-23T02:06:45.814Z,53.20
2017-10-23T02:09:12.135Z,54.40
2017-10-23T02:11:38.462Z,54.67
2017-10-23T02:14:04.811Z,54.58
2017-10-23T02:16:31.123Z,55.12
2017-10-23T02:18:57.455Z,54.48
2017-10-23T02:21:23.808Z,54.98
2017-10-23T02:23:50.122Z,55.93
2017-10-23T02:26:16.451Z,55.56
2017-10-23T02:28:42.793Z,54.98
2017-10-23T02:31:09.120Z,55.00
2017-10-23T02:33:35.469Z,54.12
2017-10-23T02:36:01.793Z,54.03
2017-10-23T02:38:28.114Z,53.98
2017-10-23T02:40:54.451Z,54.24
2017-10-23T02:43:20.768Z,53.78
2017-10-23T02:45:47.125Z,53.78
2017-10-23T02:48:13.458Z,53.94
2017-10-23T02:50:39.695Z,53.90
2017-10-23T02:53:06.015Z,53.86
2017-10-23T02:55:32.350Z,53.80
2017-10-23T02:57:58.735Z,53.56
2017-10-23T03:00:25.154Z,53.28
2017-10-23T03:02:51.457Z,53.81
2017-10-23T03:05:17.771Z,52.86
2017-10-23T03:07:44.103Z,53.52
2017-10-23T03:10:10.365Z,54.04
2017-10-23T03:12:36.663Z,53.96
2017-10-23T03:15:03.009Z,54.96
2017-10-23T03:17:29.325Z,54.18
2017-10-23T03:19:55.670Z,53.98
2017-10-23T03:22:22.063Z,54.06
2017-10-23T03:24:48.419Z,53.83
2017-10-23T03:27:14.751Z,53.67
2017-10-23T03:29:41.098Z,53.88
2017-10-23T03:32:10.476Z,53.62
2017-10-23T03:34:36.888Z,54.34
2017-10-23T03:37:03.271Z,54.58
2017-10-23T03:39:29.593Z,54.69
2017-10-23T03:41:55.939Z,54.76
2017-10-23T03:44:22.273Z,54.40
2017-10-23T03:46:48.600Z,54.53
2017-10-23T03:49:14.922Z,54.43
2017-10-23T03:51:41.263Z,53.96
2017-10-23T03:54:07.595Z,53.99
2017-10-23T03:56:33.985Z,53.92
2017-10-23T03:59:00.259Z,54.17
2017-10-23T04:01:26.596Z,54.30
2017-10-23T04:03:52.952Z,54.38
2017-10-23T04:06:19.262Z,53.98
2017-10-23T04:08:45.575Z,54.33
2017-10-23T04:11:11.910Z,54.25
2017-10-23T04:13:38.255Z,54.29
2017-10-23T04:16:04.692Z,54.13
2017-10-23T04:18:31.073Z,54.25
2017-10-23T04:20:57.333Z,54.17
2017-10-23T04:23:23.678Z,54.57
2017-10-23T04:25:50.020Z,54.57
2017-10-23T04:28:16.340Z,54.59
2017-10-23T04:30:42.692Z,54.46
2017-10-23T04:33:09.035Z,54.46
2017-10-23T04:35:35.349Z,54.71
2017-10-23T04:38:01.666Z,54.92
2017-10-23T04:40:28.006Z,55.00
2017-10-23T04:42:54.324Z,55.06
2017-10-23T04:45:20.671Z,55.09
2017-10-23T04:47:47.013Z,55.31
2017-10-23T04:50:13.337Z,55.21
2017-10-23T04:52:39.682Z,55.23
2017-10-23T04:55:06.014Z,55.25
2017-10-23T04:57:32.383Z,55.15
2017-10-23T04:59:58.673Z,55.78
2017-10-23T05:02:26.791Z,56.07
2017-10-23T05:04:53.176Z,55.63
2017-10-23T05:07:19.491Z,56.38
2017-10-23T05:09:45.850Z,56.15
2017-10-23T05:12:12.200Z,56.00
2017-10-23T05:14:38.544Z,56.29
2017-10-23T05:17:04.860Z,56.68
2017-10-23T05:19:31.165Z,56.75
2017-10-23T05:21:57.502Z,56.80
2017-10-23T05:24:23.883Z,56.72
2017-10-23T05:26:50.188Z,56.71
2017-10-23T05:29:16.497Z,56.77
2017-10-23T05:31:42.861Z,56.60
2017-10-23T05:34:09.260Z,56.40
2017-10-23T05:36:35.592Z,56.58
2017-10-23T05:39:01.923Z,56.95
2017-10-23T05:41:28.314Z,56.50
2017-10-23T05:43:54.579Z,56.75
2017-10-23T05:46:20.980Z,56.28
2017-10-23T05:48:47.381Z,56.14
2017-10-23T05:51:13.680Z,56.07
2017-10-23T05:53:40.055Z,55.93
2017-10-23T05:56:06.346Z,55.46
2017-10-23T05:58:32.683Z,55.23
2017-10-23T06:00:59.040Z,54.67
2017-10-23T06:03:25.307Z,53.88
2017-10-23T06:05:51.573Z,52.88
2017-10-23T06:08:17.811Z,52.56
2017-10-23T06:10:44.144Z,52.84
2017-10-23T06:13:10.479Z,53.07
2017-10-23T06:15:37.706Z,54.02
2017-10-23T06:18:04.058Z,53.80
2017-10-23T06:20:30.385Z,54.36
2017-10-23T06:22:56.709Z,54.64
2017-10-23T06:25:23.066Z,54.20
2017-10-23T06:27:49.412Z,54.67
2017-10-23T06:30:15.724Z,54.54
2017-10-23T06:32:42.071Z,54.09
2017-10-23T06:35:08.386Z,54.51
2017-10-23T06:37:34.710Z,54.33
2017-10-23T06:40:01.037Z,53.94
2017-10-23T06:42:29.127Z,54.07
2017-10-23T06:44:55.473Z,53.35
2017-10-23T06:47:21.774Z,54.44
2017-10-23T06:49:48.101Z,53.63
2017-10-23T06:52:14.448Z,52.00
2017-10-23T06:54:40.771Z,50.14
2017-10-23T06:57:07.996Z,50.57
2017-10-23T06:59:34.344Z,50.13
2017-10-23T07:02:00.704Z,49.44
2017-10-23T07:04:27.070Z,48.28
2017-10-23T07:06:53.422Z,47.53
2017-10-23T07:09:19.693Z,45.60
2017-10-23T07:11:46.055Z,46.90
2017-10-23T07:14:12.288Z,50.86
2017-10-23T07:16:38.728Z,51.96
2017-10-23T07:19:15.281Z,52.21
2017-10-23T07:21:44.780Z,51.04
2017-10-23T07:24:11.225Z,50.61
2017-10-23T07:26:37.523Z,49.83
2017-10-23T07:29:04.003Z,49.50
2017-10-23T07:31:30.313Z,49.04
2017-10-23T07:33:56.716Z,48.16
2017-10-23T07:36:23.142Z,48.59
2017-10-23T07:38:50.406Z,49.14
2017-10-23T07:41:16.739Z,48.24
2017-10-23T07:43:44.124Z,48.21
2017-10-23T07:46:10.373Z,48.18
2017-10-23T07:48:36.773Z,48.98
2017-10-23T07:51:03.065Z,48.26
2017-10-23T07:53:29.510Z,48.05
2017-10-23T07:55:56.271Z,48.32
2017-10-23T07:58:24.743Z,47.98
2017-10-23T08:00:53.133Z,46.77
2017-10-23T08:03:19.497Z,46.56
2017-10-23T08:05:46.059Z,48.09
2017-10-23T08:08:13.438Z,48.05
2017-10-23T08:10:39.868Z,47.96
2017-10-23T08:13:06.272Z,48.20
2017-10-23T08:15:32.569Z,48.40
2017-10-23T08:17:58.961Z,48.45
2017-10-23T08:20:27.322Z,48.13
2017-10-23T08:22:53.626Z,47.81
2017-10-23T08:25:22.744Z,48.02
2017-10-23T08:27:49.019Z,47.91
2017-10-23T08:30:15.436Z,47.30
2017-10-23T08:32:45.981Z,48.02
2017-10-23T08:35:18.483Z,47.97
2017-10-23T08:37:44.923Z,47.48
2017-10-23T08:40:11.256Z,47.61
2017-10-23T08:42:37.619Z,47.99
2017-10-23T08:45:03.932Z,48.20
2017-10-23T08:47:30.257Z,49.00
2017-10-23T08:49:56.595Z,48.44
2017-10-23T08:52:22.946Z,47.56
2017-10-23T08:54:49.239Z,47.86
2017-10-23T08:57:15.581Z,47.91
2017-10-23T08:59:41.914Z,47.74
2017-10-23T09:02:08.251Z,48.29
2017-10-23T09:04:34.632Z,48.13
2017-10-23T09:07:00.896Z,48.07
2017-10-23T09:09:27.232Z,48.05
2017-10-23T09:11:53.625Z,48.38
2017-10-23T09:14:19.998Z,48.83
2017-10-23T09:16:46.332Z,49.17
2017-10-23T09:19:12.657Z,50.16
2017-10-23T09:21:38.998Z,51.93
2017-10-23T09:24:05.338Z,53.00
2017-10-23T09:26:31.735Z,53.70
2017-10-23T09:28:58.010Z,53.50
2017-10-23T09:31:24.349Z,53.37
2017-10-23T09:33:50.677Z,53.13
2017-10-23T09:36:16.994Z,53.41
2017-10-23T09:38:43.493Z,53.53
2017-10-23T09:41:09.774Z,53.35
2017-10-23T09:43:37.474Z,52.91
2017-10-23T09:46:03.860Z,53.93
2017-10-23T09:51:02.082Z,54.50
2017-10-23T09:53:29.463Z,54.78
2017-10-23T09:55:55.794Z,54.79
2017-10-23T09:58:22.057Z,55.51
2017-10-23T10:00:48.417Z,55.39
2017-10-23T10:03:14.748Z,55.65
2017-10-23T10:05:42.227Z,55.77
2017-10-23T10:08:08.594Z,56.14
2017-10-23T10:10:35.042Z,56.13
2017-10-23T10:13:01.290Z,56.19
2017-10-23T10:15:27.717Z,56.18
2017-10-23T10:17:54.057Z,56.32
2017-10-23T10:20:20.429Z,56.07
2017-10-23T10:22:46.733Z,56.51
2017-10-23T10:25:13.071Z,56.80
2017-10-23T10:27:39.384Z,56.34
2017-10-23T10:30:05.728Z,55.92
2017-10-23T10:32:32.000Z,55.24
2017-10-23T10:34:58.242Z,55.37
2017-10-23T10:37:24.509Z,55.18
2017-10-23T10:39:50.776Z,54.25
2017-10-23T10:42:17.091Z,54.23
2017-10-23T10:44:43.466Z,54.58
2017-10-23T10:47:09.728Z,54.51
2017-10-23T10:49:36.171Z,55.49
2017-10-23T10:52:02.503Z,54.77
2017-10-23T10:54:28.859Z,53.83
2017-10-23T10:56:55.157Z,53.63
2017-10-23T10:59:21.495Z,54.15
2017-10-23T11:01:47.891Z,54.04
2017-10-23T11:04:14.279Z,51.45
2017-10-23T11:06:40.624Z,50.96
2017-10-23T11:09:06.905Z,50.40
2017-10-23T11:11:33.284Z,49.27
2017-10-23T11:13:59.599Z,49.47
2017-10-23T11:16:25.922Z,50.88
2017-10-23T11:18:52.264Z,52.18
2017-10-23T11:21:18.608Z,52.16
2017-10-23T11:23:44.982Z,51.31
2017-10-23T11:26:11.281Z,51.43
2017-10-23T11:28:37.601Z,52.90
2017-10-23T11:31:03.935Z,52.87
2017-10-23T11:33:30.309Z,53.80
2017-10-23T11:35:56.875Z,53.74
2017-10-23T11:38:23.224Z,53.85
2017-10-23T11:40:49.564Z,53.75
2017-10-23T11:43:15.914Z,53.93
2017-10-23T11:45:42.216Z,54.32
2017-10-23T11:48:08.594Z,54.50
2017-10-23T11:50:35.171Z,54.57
2017-10-23T11:53:01.522Z,54.28
2017-10-23T11:55:27.901Z,54.84
2017-10-23T11:57:54.208Z,54.83
2017-10-23T12:00:20.571Z,55.15
2017-10-23T12:02:46.862Z,55.61
2017-10-23T12:05:13.182Z,56.02
2017-10-23T12:07:39.416Z,56.54
2017-10-23T12:10:05.774Z,57.26
2017-10-23T12:12:32.114Z,58.09
2017-10-23T12:14:58.430Z,58.23
2017-10-23T12:17:24.764Z,58.38
2017-10-23T12:19:51.134Z,58.25
2017-10-23T12:22:17.453Z,58.25
2017-10-23T12:24:43.848Z,58.33
2017-10-23T12:27:10.171Z,58.31
2017-10-23T12:29:36.538Z,58.27
2017-10-23T12:32:02.853Z,58.34
2017-10-23T12:34:29.092Z,58.19
2017-10-23T12:36:55.406Z,58.42
2017-10-23T12:39:21.759Z,58.65
2017-10-23T12:41:48.098Z,58.63
2017-10-23T12:44:14.417Z,58.51
2017-10-23T12:46:40.758Z,58.54
2017-10-23T12:49:07.211Z,58.69
2017-10-23T12:51:33.613Z,58.80
2017-10-23T12:53:59.936Z,59.21
2017-10-23T12:56:26.288Z,58.89
2017-10-23T12:58:52.615Z,59.02
2017-10-23T13:01:18.941Z,59.47
2017-10-23T13:03:45.233Z,59.65
2017-10-23T13:06:11.603Z,59.36
2017-10-23T13:08:39.056Z,59.18
2017-10-23T13:11:06.563Z,58.88
2017-10-23T13:13:32.965Z,59.54
2017-10-23T13:15:59.224Z,60.00
2017-10-23T13:18:25.521Z,59.55
2017-10-23T13:20:51.830Z,59.47
2017-10-23T13:23:18.076Z,59.72
2017-10-23T13:25:44.340Z,60.21
2017-10-23T13:28:10.617Z,61.66
2017-10-23T13:30:36.893Z,62.89
2017-10-23T13:33:03.172Z,63.85
2017-10-23T13:35:29.501Z,66.28
2017-10-23T13:37:55.800Z,63.41
2017-10-23T13:40:22.069Z,65.91
2017-10-23T13:42:48.397Z,67.79
2017-10-23T13:45:14.741Z,67.16
2017-10-23T13:47:41.932Z,69.12
2017-10-23T13:50:08.252Z,69.11
2017-10-23T13:52:35.714Z,70.78
2017-10-23T13:55:02.063Z,72.39
2017-10-23T13:57:29.161Z,72.02
2017-10-23T13:59:55.618Z,73.45
2017-10-23T14:02:21.965Z,73.16
2017-10-23T14:04:48.334Z,74.72
2017-10-23T14:07:14.962Z,74.84
2017-10-23T14:09:41.300Z,76.56
2017-10-23T14:12:07.605Z,76.50
2017-10-23T14:14:34.021Z,77.64
2017-10-23T14:17:00.349Z,78.08
2017-10-23T14:19:26.608Z,77.99
2017-10-23T14:21:52.915Z,79.22
2017-10-23T14:24:19.256Z,81.61
2017-10-23T14:26:45.615Z,82.65
2017-10-23T14:29:16.862Z,83.70
2017-10-23T14:31:43.175Z,83.76
2017-10-23T14:42:41.956Z,87.03
2017-10-23T14:45:08.486Z,88.45
2017-10-23T14:47:34.861Z,88.75
2017-10-23T14:50:02.137Z,88.56
2017-10-23T14:52:29.539Z,88.68
2017-10-23T14:54:55.895Z,88.19
2017-10-23T14:57:22.224Z,87.83
2017-10-23T14:59:48.558Z,87.81
2017-10-23T15:02:17.630Z,87.64
2017-10-23T15:07:16.524Z,88.19
2017-10-23T15:09:43.012Z,88.21
2017-10-23T15:12:09.439Z,88.11
2017-10-23T15:14:35.794Z,87.61
2017-10-23T15:17:02.783Z,87.37
2017-10-23T15:19:29.264Z,87.93
2017-10-23T15:21:55.590Z,88.51
2017-10-23T15:24:22.015Z,88.77
2017-10-23T15:26:48.318Z,88.75
2017-10-23T15:29:14.718Z,88.97
2017-10-23T15:31:41.146Z,88.92
2017-10-23T15:34:07.737Z,89.48
2017-10-23T15:36:34.104Z,89.61
2017-10-23T15:39:00.405Z,89.61
2017-10-23T15:41:26.746Z,89.61
2017-10-23T15:43:53.122Z,89.50
2017-10-23T15:46:19.425Z,89.63
2017-10-23T15:48:47.193Z,89.43
2017-10-23T15:51:13.488Z,89.25
2017-10-23T15:53:39.821Z,89.17
2017-10-23T15:56:06.161Z,89.15
2017-10-23T15:58:32.507Z,88.81
2017-10-23T16:00:58.854Z,88.67
2017-10-23T16:03:25.151Z,88.24
2017-10-23T16:05:51.487Z,88.00
2017-10-23T16:08:17.804Z,88.05
2017-10-23T16:10:44.261Z,88.32
2017-10-23T16:13:10.582Z,88.57
2017-10-23T16:15:36.919Z,88.81
2017-10-23T16:18:03.239Z,88.54
2017-10-23T16:20:29.580Z,87.98
2017-10-23T16:22:56.033Z,88.16
2017-10-23T16:25:22.362Z,88.57
2017-10-23T16:27:48.671Z,88.80
2017-10-23T16:30:15.013Z,89.16
2017-10-23T16:32:41.400Z,88.91
2017-10-23T16:35:07.776Z,88.47
2017-10-23T16:37:34.603Z,89.13
2017-10-23T16:40:00.886Z,88.53
2017-10-23T16:42:27.187Z,88.73
2017-10-23T16:44:53.507Z,88.92
2017-10-23T16:47:19.844Z,89.10
2017-10-23T16:49:46.179Z,89.75
2017-10-23T16:52:12.580Z,90.00
2017-10-23T16:54:38.946Z,89.60
2017-10-23T16:57:05.281Z,89.23
2017-10-23T16:59:31.627Z,89.64
2017-10-23T17:01:57.931Z,89.31
2017-10-23T17:04:24.261Z,89.71
2017-10-23T17:06:50.609Z,89.55
2017-10-23T17:09:16.939Z,89.22
2017-10-23T17:11:43.287Z,89.38
2017-10-23T17:14:09.898Z,89.50
2017-10-23T17:16:36.335Z,89.92
2017-10-23T17:19:02.690Z,90.18
2017-10-23T17:21:28.997Z,90.73
2017-10-23T17:23:55.442Z,90.53
2017-10-23T17:26:22.801Z,90.71
2017-10-23T17:28:58.955Z,90.92
2017-10-23T17:31:25.457Z,90.94
2017-10-23T17:33:52.130Z,90.81
2017-10-23T17:36:18.547Z,90.77
2017-10-23T17:38:50.658Z,90.64
2017-10-23T17:41:17.098Z,90.28
2017-10-23T17:43:43.413Z,90.53
2017-10-23T17:46:09.841Z,90.67
2017-10-23T17:48:36.294Z,90.75
2017-10-23T17:51:02.666Z,90.96
2017-10-23T17:53:29.239Z,91.11
2017-10-23T17:55:55.641Z,91.33
2017-10-23T17:58:22.062Z,91.46
2017-10-23T18:00:48.443Z,91.17
2017-10-23T18:03:15.625Z,91.48
2017-10-23T18:05:42.981Z,91.47
2017-10-23T18:08:09.402Z,91.58
2017-10-23T18:10:35.731Z,91.62
2017-10-23T18:13:02.105Z,91.50
2017-10-23T18:15:28.396Z,91.59
2017-10-23T18:17:55.686Z,91.66
2017-10-23T18:20:22.011Z,92.09
2017-10-23T18:22:48.661Z,92.07
2017-10-23T18:25:15.011Z,91.86
2017-10-23T18:27:41.398Z,91.83
2017-10-23T18:30:07.713Z,91.88
2017-10-23T18:32:34.061Z,91.85
2017-10-23T18:35:00.407Z,91.72
2017-10-23T18:37:26.784Z,92.06
2017-10-23T18:39:53.277Z,92.05
2017-10-23T18:44:54.577Z,91.44
2017-10-23T18:47:22.612Z,91.51
2017-10-23T18:49:49.205Z,91.42
2017-10-23T19:02:04.025Z,92.17
2017-10-23T19:04:30.551Z,92.39
2017-10-23T19:07:05.900Z,92.42
2017-10-23T19:09:41.239Z,92.57
2017-10-23T19:14:47.993Z,92.50
2017-10-23T19:17:30.890Z,92.54
2017-10-23T19:32:52.273Z,92.57
2017-10-23T19:35:18.639Z,93.04
2017-10-23T19:37:44.990Z,93.09
2017-10-23T19:40:11.337Z,92.95
2017-10-23T19:42:37.675Z,93.20
2017-10-23T19:45:05.034Z,93.43
2017-10-23T19:47:31.325Z,93.36
2017-10-23T19:49:57.675Z,93.81
2017-10-23T19:52:24.056Z,93.86
2017-10-23T19:54:50.481Z,93.52
2017-10-23T19:57:16.834Z,92.48
2017-10-23T19:59:43.118Z,92.62
2017-10-23T20:02:09.566Z,93.13
2017-10-23T20:04:35.904Z,93.28
2017-10-23T20:07:07.183Z,93.02
2017-10-23T20:09:43.241Z,92.70
2017-10-23T20:12:09.658Z,92.85
2017-10-23T20:14:36.027Z,93.14
2017-10-23T20:17:11.351Z,92.57
2017-10-23T20:19:37.741Z,92.10
2017-10-23T20:22:04.081Z,91.61
2017-10-23T20:24:30.546Z,92.11
2017-10-23T20:26:56.880Z,92.81
2017-10-23T20:29:23.385Z,93.44
2017-10-23T20:31:49.814Z,93.20
2017-10-23T20:34:16.643Z,92.87
2017-10-23T20:36:44.585Z,92.42
2017-10-23T20:39:11.217Z,92.20
2017-10-23T20:41:47.471Z,92.11
2017-10-23T20:44:13.945Z,92.03
2017-10-23T20:46:43.787Z,91.65
2017-10-23T20:49:10.197Z,91.41
2017-10-23T20:51:37.138Z,91.39
2017-10-23T20:54:03.654Z,91.37
2017-10-23T20:56:31.014Z,90.67
2017-10-23T20:58:59.799Z,90.96
2017-10-23T21:01:34.624Z,91.18
2017-10-23T21:04:03.275Z,91.44
2017-10-23T21:06:35.093Z,91.50
2017-10-23T21:19:55.068Z,92.61
2017-10-23T21:43:58.036Z,93.25
2017-10-23T22:37:21.601Z,92.90
2017-10-23T22:39:59.383Z,92.91
2017-10-23T22:42:34.245Z,92.54
2017-10-23T22:45:00.958Z,92.94
2017-10-23T22:50:06.333Z,92.98
2017-10-23T22:52:41.903Z,93.37
2017-10-23T22:55:08.420Z,93.58
2017-10-23T22:57:36.951Z,93.62
2017-10-23T23:00:04.340Z,93.53
2017-10-23T23:02:32.629Z,93.23
2017-10-23T23:05:07.008Z,92.88
2017-10-23T23:07:42.520Z,92.78
2017-10-23T23:10:12.937Z,92.45
2017-10-23T23:12:39.337Z,92.51
2017-10-23T23:15:07.612Z,92.42
2017-10-23T23:17:33.963Z,92.74
2017-10-23T23:20:00.359Z,92.97
2017-10-23T23:22:26.688Z,92.78
2017-10-23T23:24:53.156Z,92.62
2017-10-23T23:27:19.517Z,92.43
2017-10-23T23:29:46.076Z,92.51
2017-10-23T23:32:12.440Z,91.93
2017-10-23T23:34:38.764Z,91.84
2017-10-23T23:37:05.227Z,91.56
2017-10-23T23:39:31.546Z,91.47
2017-10-23T23:41:57.890Z,91.66
2017-10-23T23:44:24.311Z,91.70
2017-10-23T23:46:50.651Z,91.37
2017-10-23T23:49:17.068Z,91.50
2017-10-23T23:51:43.435Z,91.68
2017-10-23T23:54:13.174Z,91.68
2017-10-23T23:56:39.533Z,91.87
2017-10-23T23:59:05.878Z,91.83
